createdAt,value
2018-03-15T00:00:08.008Z,5.50
2018-03-15T00:00:45.654Z,5.50
2018-03-15T00:01:17.327Z,5.50
2018-03-15T00:01:55.064Z,5.50
2018-03-15T00:02:27.487Z,5.50
2018-03-15T00:02:59.147Z,5.50
2018-03-15T00:03:33.865Z,5.50
2018-03-15T00:04:05.518Z,5.50
2018-03-15T00:04:37.186Z,5.40
2018-03-15T00:05:08.810Z,5.50
2018-03-15T00:05:40.445Z,5.40
2018-03-15T00:06:12.062Z,5.40
2018-03-15T00:06:43.708Z,5.40
2018-03-15T00:07:15.324Z,5.40
2018-03-15T00:07:46.950Z,5.40
2018-03-15T00:08:18.581Z,5.40
2018-03-15T00:08:50.204Z,5.40
2018-03-15T00:09:21.828Z,5.40
2018-03-15T00:09:53.459Z,5.40
2018-03-15T00:10:25.107Z,5.40
2018-03-15T00:10:56.732Z,5.40
2018-03-15T00:11:28.360Z,5.50
2018-03-15T00:11:59.996Z,5.40
2018-03-15T00:12:31.626Z,5.40
2018-03-15T00:13:03.238Z,5.50
2018-03-15T00:13:34.896Z,5.40
2018-03-15T00:14:06.518Z,5.40
2018-03-15T00:14:38.172Z,5.40
2018-03-15T00:15:09.810Z,5.40
2018-03-15T00:15:41.429Z,5.30
2018-03-15T00:16:13.078Z,5.40
2018-03-15T00:16:44.724Z,5.30
2018-03-15T00:17:16.380Z,5.40
2018-03-15T00:17:48.026Z,5.30
2018-03-15T00:18:19.662Z,5.30
2018-03-15T00:18:51.304Z,5.40
2018-03-15T00:19:22.937Z,5.30
2018-03-15T00:19:54.562Z,5.30
2018-03-15T00:20:26.196Z,5.30
2018-03-15T00:20:57.824Z,5.30
2018-03-15T00:21:29.458Z,5.30
2018-03-15T00:22:01.088Z,5.30
2018-03-15T00:22:32.800Z,5.30
2018-03-15T00:23:04.456Z,5.30
2018-03-15T00:23:36.066Z,5.30
2018-03-15T00:24:07.698Z,5.30
2018-03-15T00:24:39.297Z,5.30
2018-03-15T00:25:10.952Z,5.30
2018-03-15T00:25:42.572Z,5.30
2018-03-15T00:26:14.197Z,5.30
2018-03-15T00:26:45.826Z,5.30
2018-03-15T00:27:17.452Z,5.30
2018-03-15T00:27:49.076Z,5.30
2018-03-15T00:28:20.707Z,5.30
2018-03-15T00:28:52.366Z,5.20
2018-03-15T00:29:24.016Z,5.20
2018-03-15T00:29:55.648Z,5.20
2018-03-15T00:30:27.269Z,5.20
2018-03-15T00:30:58.890Z,5.30
2018-03-15T00:31:30.528Z,5.20
2018-03-15T00:32:02.182Z,5.30
2018-03-15T00:32:33.796Z,5.20
2018-03-15T00:33:05.419Z,5.30
2018-03-15T00:33:37.051Z,5.30
2018-03-15T00:34:08.692Z,5.20
2018-03-15T00:34:40.325Z,5.20
2018-03-15T00:35:11.970Z,5.20
2018-03-15T00:35:43.594Z,5.20
2018-03-15T00:36:15.216Z,5.20
2018-03-15T00:36:46.864Z,5.20
2018-03-15T00:37:18.486Z,5.30
2018-03-15T00:37:50.103Z,5.20
2018-03-15T00:38:21.756Z,5.20
2018-03-15T00:38:53.381Z,5.20
2018-03-15T00:39:25.001Z,5.30
2018-03-15T00:39:56.633Z,5.20
2018-03-15T00:40:28.266Z,5.10
2018-03-15T00:40:59.885Z,5.20
2018-03-15T00:41:31.522Z,5.10
2018-03-15T00:42:03.137Z,5.20
2018-03-15T00:42:34.773Z,5.20
2018-03-15T00:43:06.394Z,5.20
2018-03-15T00:43:38.018Z,5.20
2018-03-15T00:44:09.684Z,5.20
2018-03-15T00:44:41.325Z,5.20
2018-03-15T00:45:12.947Z,5.10
2018-03-15T00:45:44.565Z,5.10
2018-03-15T00:46:16.183Z,5.10
2018-03-15T00:46:47.811Z,5.20
2018-03-15T00:47:19.450Z,5.10
2018-03-15T00:47:51.069Z,5.20
2018-03-15T00:48:22.715Z,5.10
2018-03-15T00:48:54.386Z,5.10
2018-03-15T00:49:26.003Z,5.10
2018-03-15T00:49:57.641Z,5.10
2018-03-15T00:50:29.270Z,5.10
2018-03-15T00:51:00.875Z,5.20
2018-03-15T00:51:32.515Z,5.10
2018-03-15T00:52:04.138Z,5.10
2018-03-15T00:52:35.761Z,5.20
2018-03-15T00:53:07.383Z,5.10
2018-03-15T00:53:39.014Z,5.10
2018-03-15T00:54:10.653Z,5.10
2018-03-15T00:54:42.271Z,5.10
2018-03-15T00:55:13.897Z,5.10
2018-03-15T00:55:45.539Z,5.10
2018-03-15T00:56:17.170Z,5.10
2018-03-15T00:56:48.813Z,5.10
2018-03-15T00:57:20.434Z,5.10
2018-03-15T00:57:52.054Z,5.10
2018-03-15T00:58:23.680Z,5.10
2018-03-15T00:58:55.303Z,5.00
2018-03-15T00:59:26.992Z,5.10
2018-03-15T00:59:58.625Z,5.10
2018-03-15T01:00:30.311Z,5.10
2018-03-15T01:01:02.004Z,5.00
2018-03-15T01:01:33.679Z,5.10
2018-03-15T01:02:05.348Z,5.10
2018-03-15T01:02:37.070Z,5.10
2018-03-15T01:03:08.730Z,5.10
2018-03-15T01:03:40.352Z,5.10
2018-03-15T01:04:11.973Z,5.00
2018-03-15T01:04:43.620Z,5.00
2018-03-15T01:05:15.259Z,5.00
2018-03-15T01:05:46.877Z,5.00
2018-03-15T01:06:18.530Z,5.00
2018-03-15T01:06:50.173Z,5.10
2018-03-15T01:07:21.797Z,5.00
2018-03-15T01:07:53.436Z,5.00
2018-03-15T01:08:25.060Z,5.00
2018-03-15T01:08:56.709Z,5.00
2018-03-15T01:09:28.348Z,4.90
2018-03-15T01:10:00.026Z,5.00
2018-03-15T01:10:31.670Z,5.00
2018-03-15T01:11:03.324Z,4.90
2018-03-15T01:11:34.930Z,5.00
2018-03-15T01:12:06.566Z,5.00
2018-03-15T01:12:38.197Z,4.90
2018-03-15T01:13:09.842Z,5.00
2018-03-15T01:13:41.480Z,5.00
2018-03-15T01:14:13.096Z,5.00
2018-03-15T01:14:44.771Z,5.00
2018-03-15T01:15:16.485Z,5.00
2018-03-15T01:15:48.137Z,4.90
2018-03-15T01:16:19.757Z,4.90
2018-03-15T01:16:51.453Z,4.90
2018-03-15T01:17:23.094Z,5.00
2018-03-15T01:17:54.731Z,4.90
2018-03-15T01:18:26.395Z,4.90
2018-03-15T01:18:58.014Z,5.00
2018-03-15T01:19:29.632Z,4.90
2018-03-15T01:20:01.249Z,4.90
2018-03-15T01:20:32.875Z,4.90
2018-03-15T01:21:04.536Z,4.90
2018-03-15T01:21:36.191Z,4.90
2018-03-15T01:22:07.846Z,4.90
2018-03-15T01:22:39.460Z,4.90
2018-03-15T01:23:11.115Z,4.90
2018-03-15T01:23:42.735Z,4.90
2018-03-15T01:24:14.354Z,4.90
2018-03-15T01:24:46.000Z,4.90
2018-03-15T01:25:17.622Z,4.90
2018-03-15T01:25:49.245Z,4.90
2018-03-15T01:26:20.875Z,4.90
2018-03-15T01:26:52.498Z,4.80
2018-03-15T01:27:24.136Z,4.80
2018-03-15T01:27:55.755Z,4.90
2018-03-15T01:28:27.381Z,4.80
2018-03-15T01:28:59.081Z,4.90
2018-03-15T01:29:30.661Z,4.90
2018-03-15T01:30:03.469Z,4.90
2018-03-15T01:30:35.088Z,4.90
2018-03-15T01:31:06.752Z,4.80
2018-03-15T01:31:38.387Z,4.80
2018-03-15T01:32:10.034Z,4.80
2018-03-15T01:32:41.673Z,4.80
2018-03-15T01:33:13.291Z,4.90
2018-03-15T01:33:44.910Z,4.80
2018-03-15T01:34:16.547Z,4.80
2018-03-15T01:34:48.164Z,4.80
2018-03-15T01:35:19.765Z,4.80
2018-03-15T01:35:51.406Z,4.80
2018-03-15T01:36:23.053Z,4.70
2018-03-15T01:36:54.675Z,4.80
2018-03-15T01:37:26.296Z,4.80
2018-03-15T01:37:57.918Z,4.80
2018-03-15T01:38:29.577Z,4.80
2018-03-15T01:39:01.220Z,4.70
2018-03-15T01:39:32.855Z,4.80
2018-03-15T01:40:04.490Z,4.80
2018-03-15T01:40:36.157Z,4.80
2018-03-15T01:41:07.805Z,4.80
2018-03-15T01:41:39.425Z,4.70
2018-03-15T01:42:11.062Z,4.80
2018-03-15T01:42:42.708Z,4.70
2018-03-15T01:43:14.344Z,4.80
2018-03-15T01:43:45.951Z,4.80
2018-03-15T01:44:17.585Z,4.70
2018-03-15T01:44:49.196Z,4.70
2018-03-15T01:45:20.828Z,4.80
2018-03-15T01:45:52.438Z,4.70
2018-03-15T01:46:24.090Z,4.80
2018-03-15T01:46:55.736Z,4.70
2018-03-15T01:47:27.363Z,4.70
2018-03-15T01:47:59.005Z,4.70
2018-03-15T01:48:30.623Z,4.70
2018-03-15T01:49:02.230Z,4.70
2018-03-15T01:49:33.858Z,4.70
2018-03-15T01:50:05.466Z,4.70
2018-03-15T01:50:37.096Z,4.70
2018-03-15T01:51:08.710Z,4.60
2018-03-15T01:51:40.332Z,4.60
2018-03-15T01:52:11.999Z,4.70
2018-03-15T01:52:43.580Z,4.70
2018-03-15T01:53:15.211Z,4.60
2018-03-15T01:53:46.843Z,4.70
2018-03-15T01:54:18.477Z,4.80
2018-03-15T01:54:50.096Z,4.70
2018-03-15T01:55:21.724Z,4.60
2018-03-15T01:55:53.361Z,4.70
2018-03-15T01:56:24.979Z,4.70
2018-03-15T01:56:56.605Z,4.70
2018-03-15T01:57:28.233Z,4.70
2018-03-15T01:57:59.861Z,4.60
2018-03-15T01:58:31.481Z,4.70
2018-03-15T01:59:03.102Z,4.70
2018-03-15T01:59:34.718Z,4.70
2018-03-15T02:00:06.363Z,4.60
2018-03-15T02:00:38.001Z,4.60
2018-03-15T02:01:09.660Z,4.60
2018-03-15T02:01:41.294Z,4.60
2018-03-15T02:02:12.917Z,4.70
2018-03-15T02:02:44.579Z,4.60
2018-03-15T02:03:16.213Z,4.70
2018-03-15T02:03:47.833Z,4.60
2018-03-15T02:04:19.484Z,4.60
2018-03-15T02:04:51.134Z,4.70
2018-03-15T02:05:22.761Z,4.60
2018-03-15T02:05:54.397Z,4.60
2018-03-15T02:06:26.026Z,4.60
2018-03-15T02:06:57.661Z,4.70
2018-03-15T02:07:29.283Z,4.60
2018-03-15T02:08:00.923Z,4.60
2018-03-15T02:08:32.520Z,4.60
2018-03-15T02:09:04.228Z,4.60
2018-03-15T02:09:35.857Z,4.70
2018-03-15T02:10:07.490Z,4.70
2018-03-15T02:10:39.117Z,4.60
2018-03-15T02:11:10.741Z,4.60
2018-03-15T02:11:42.372Z,4.60
2018-03-15T02:12:13.993Z,4.60
2018-03-15T02:12:45.630Z,4.60
2018-03-15T02:13:17.273Z,4.70
2018-03-15T02:13:48.892Z,4.60
2018-03-15T02:14:20.534Z,4.60
2018-03-15T02:14:52.165Z,4.60
2018-03-15T02:15:23.774Z,4.60
2018-03-15T02:15:55.418Z,4.60
2018-03-15T02:16:27.044Z,4.60
2018-03-15T02:16:58.698Z,4.60
2018-03-15T02:17:30.332Z,4.60
2018-03-15T02:18:01.961Z,4.50
2018-03-15T02:18:33.596Z,4.60
2018-03-15T02:19:05.241Z,4.60
2018-03-15T02:19:36.881Z,4.60
2018-03-15T02:20:08.505Z,4.60
2018-03-15T02:20:40.117Z,4.60
2018-03-15T02:21:11.743Z,4.60
2018-03-15T02:21:43.385Z,4.60
2018-03-15T02:22:15.026Z,4.60
2018-03-15T02:22:46.644Z,4.60
2018-03-15T02:23:18.271Z,4.60
2018-03-15T02:23:49.906Z,4.60
2018-03-15T02:24:21.510Z,4.60
2018-03-15T02:24:53.144Z,4.50
2018-03-15T02:25:24.753Z,4.60
2018-03-15T02:25:56.388Z,4.50
2018-03-15T02:26:28.023Z,4.50
2018-03-15T02:26:59.642Z,4.60
2018-03-15T02:27:31.261Z,4.50
2018-03-15T02:28:02.939Z,4.60
2018-03-15T02:28:34.575Z,4.60
2018-03-15T02:29:06.213Z,4.60
2018-03-15T02:29:37.851Z,4.50
2018-03-15T02:30:09.501Z,4.50
2018-03-15T02:30:41.154Z,4.60
2018-03-15T02:31:12.781Z,4.50
2018-03-15T02:31:44.392Z,4.60
2018-03-15T02:32:16.047Z,4.50
2018-03-15T02:32:47.702Z,4.60
2018-03-15T02:33:19.357Z,4.60
2018-03-15T02:33:51.001Z,4.50
2018-03-15T02:34:22.646Z,4.60
2018-03-15T02:34:54.274Z,4.60
2018-03-15T02:35:25.908Z,4.50
2018-03-15T02:35:57.520Z,4.60
2018-03-15T02:36:29.170Z,4.50
2018-03-15T02:37:00.803Z,4.50
2018-03-15T02:37:32.447Z,4.60
2018-03-15T02:38:04.084Z,4.50
2018-03-15T02:38:35.715Z,4.60
2018-03-15T02:39:07.316Z,4.60
2018-03-15T02:39:38.978Z,4.60
2018-03-15T02:40:10.607Z,4.60
2018-03-15T02:40:42.248Z,4.60
2018-03-15T02:41:13.866Z,4.60
2018-03-15T02:41:45.504Z,4.50
2018-03-15T02:42:17.122Z,4.60
2018-03-15T02:42:48.758Z,4.50
2018-03-15T02:43:20.391Z,4.60
2018-03-15T02:43:52.005Z,4.60
2018-03-15T02:44:23.622Z,4.50
2018-03-15T02:44:55.320Z,4.50
2018-03-15T02:45:26.963Z,4.60
2018-03-15T02:45:58.597Z,4.70
2018-03-15T02:46:30.237Z,4.60
2018-03-15T02:47:01.853Z,4.60
2018-03-15T02:47:33.550Z,4.60
2018-03-15T02:48:05.131Z,4.50
2018-03-15T02:48:36.750Z,4.50
2018-03-15T02:49:08.400Z,4.60
2018-03-15T02:49:40.025Z,4.60
2018-03-15T02:50:11.679Z,4.50
2018-03-15T02:50:43.305Z,4.60
2018-03-15T02:51:14.942Z,4.60
2018-03-15T02:51:46.573Z,4.60
2018-03-15T02:52:18.202Z,4.60
2018-03-15T02:52:49.838Z,4.60
2018-03-15T02:53:21.458Z,4.60
2018-03-15T02:53:53.112Z,4.60
2018-03-15T02:54:24.742Z,4.50
2018-03-15T02:54:56.387Z,4.60
2018-03-15T02:55:28.058Z,4.60
2018-03-15T02:55:59.683Z,4.70
2018-03-15T02:56:31.308Z,4.60
2018-03-15T02:57:02.937Z,4.60
2018-03-15T02:57:34.553Z,4.50
2018-03-15T02:58:06.154Z,4.60
2018-03-15T02:58:37.811Z,4.60
2018-03-15T02:59:09.451Z,4.60
2018-03-15T02:59:41.070Z,4.60
2018-03-15T03:00:12.704Z,4.60
2018-03-15T03:00:44.340Z,4.60
2018-03-15T03:01:15.947Z,4.60
2018-03-15T03:01:47.594Z,4.60
2018-03-15T03:02:19.237Z,4.70
2018-03-15T03:02:50.856Z,4.60
2018-03-15T03:03:22.535Z,4.70
2018-03-15T03:03:54.148Z,4.60
2018-03-15T03:04:25.799Z,4.60
2018-03-15T03:04:57.404Z,4.60
2018-03-15T03:05:29.039Z,4.70
2018-03-15T03:06:00.707Z,4.70
2018-03-15T03:06:32.346Z,4.60
2018-03-15T03:07:04.008Z,4.60
2018-03-15T03:07:35.656Z,4.70
2018-03-15T03:08:07.270Z,4.60
2018-03-15T03:08:38.910Z,4.70
2018-03-15T03:09:10.541Z,4.70
2018-03-15T03:09:42.202Z,4.60
2018-03-15T03:10:13.816Z,4.60
2018-03-15T03:10:45.489Z,4.60
2018-03-15T03:11:17.445Z,4.60
2018-03-15T03:11:49.103Z,4.60
2018-03-15T03:12:20.762Z,4.70
2018-03-15T03:12:52.373Z,4.70
2018-03-15T03:13:23.995Z,4.60
2018-03-15T03:13:55.617Z,4.60
2018-03-15T03:14:27.253Z,4.60
2018-03-15T03:14:58.876Z,4.60
2018-03-15T03:15:30.514Z,4.60
2018-03-15T03:16:02.226Z,4.60
2018-03-15T03:16:33.842Z,4.60
2018-03-15T03:17:05.481Z,4.60
2018-03-15T03:17:37.096Z,4.60
2018-03-15T03:18:08.714Z,4.50
2018-03-15T03:18:40.332Z,4.60
2018-03-15T03:19:11.949Z,4.60
2018-03-15T03:19:43.563Z,4.60
2018-03-15T03:20:15.225Z,4.60
2018-03-15T03:20:46.864Z,4.60
2018-03-15T03:21:18.470Z,4.60
2018-03-15T03:21:50.124Z,4.60
2018-03-15T03:22:21.750Z,4.60
2018-03-15T03:22:53.377Z,4.60
2018-03-15T03:23:25.044Z,4.60
2018-03-15T03:23:56.694Z,4.60
2018-03-15T03:24:28.330Z,4.60
2018-03-15T03:24:59.955Z,4.60
2018-03-15T03:25:31.567Z,4.50
2018-03-15T03:26:03.229Z,4.50
2018-03-15T03:26:34.868Z,4.50
2018-03-15T03:27:06.498Z,4.60
2018-03-15T03:27:38.138Z,4.60
2018-03-15T03:28:09.794Z,4.60
2018-03-15T03:28:41.434Z,4.60
2018-03-15T03:29:13.076Z,4.60
2018-03-15T03:29:44.704Z,4.60
2018-03-15T03:30:16.346Z,4.60
2018-03-15T03:30:48.001Z,4.60
2018-03-15T03:31:19.619Z,4.60
2018-03-15T03:31:51.287Z,4.70
2018-03-15T03:32:22.933Z,4.60
2018-03-15T03:32:54.566Z,4.60
2018-03-15T03:33:26.217Z,4.60
2018-03-15T03:33:57.828Z,4.60
2018-03-15T03:34:29.461Z,4.60
2018-03-15T03:35:01.070Z,4.60
2018-03-15T03:35:32.708Z,4.50
2018-03-15T03:36:04.343Z,4.60
2018-03-15T03:36:35.993Z,4.60
2018-03-15T03:37:07.604Z,4.60
2018-03-15T03:37:39.242Z,4.60
2018-03-15T03:38:10.882Z,4.60
2018-03-15T03:38:42.524Z,4.60
2018-03-15T03:39:14.156Z,4.60
2018-03-15T03:39:45.759Z,4.60
2018-03-15T03:40:17.424Z,4.50
2018-03-15T03:40:49.050Z,4.60
2018-03-15T03:41:20.674Z,4.60
2018-03-15T03:41:52.314Z,4.60
2018-03-15T03:42:23.960Z,4.60
2018-03-15T03:42:55.598Z,4.60
2018-03-15T03:43:27.234Z,4.60
2018-03-15T03:43:58.877Z,4.50
2018-03-15T03:44:30.497Z,4.60
2018-03-15T03:45:02.157Z,4.60
2018-03-15T03:45:33.814Z,4.60
2018-03-15T03:46:05.491Z,4.60
2018-03-15T03:46:37.132Z,4.60
2018-03-15T03:47:08.758Z,4.60
2018-03-15T03:47:40.374Z,4.50
2018-03-15T03:48:11.993Z,4.50
2018-03-15T03:48:43.625Z,4.60
2018-03-15T03:49:15.256Z,4.60
2018-03-15T03:49:46.889Z,4.60
2018-03-15T03:50:18.506Z,4.60
2018-03-15T03:50:50.140Z,4.60
2018-03-15T03:51:21.943Z,4.50
2018-03-15T03:51:53.562Z,4.60
2018-03-15T03:52:25.211Z,4.60
2018-03-15T03:52:56.820Z,4.60
2018-03-15T03:53:28.453Z,4.60
2018-03-15T03:54:00.060Z,4.60
2018-03-15T03:54:31.672Z,4.60
2018-03-15T03:55:03.341Z,4.60
2018-03-15T03:55:34.969Z,4.60
2018-03-15T03:56:06.598Z,4.60
2018-03-15T03:56:38.226Z,4.60
2018-03-15T03:57:09.834Z,4.60
2018-03-15T03:57:41.486Z,4.60
2018-03-15T03:58:13.096Z,4.50
2018-03-15T03:58:44.734Z,4.50
2018-03-15T03:59:16.355Z,4.60
2018-03-15T03:59:47.969Z,4.50
2018-03-15T04:00:19.589Z,4.60
2018-03-15T04:00:54.765Z,4.60
2018-03-15T04:01:26.457Z,4.50
2018-03-15T04:01:58.122Z,4.60
2018-03-15T04:02:29.799Z,4.50
2018-03-15T04:03:01.428Z,4.60
2018-03-15T04:03:33.058Z,4.50
2018-03-15T04:04:04.679Z,4.60
2018-03-15T04:04:36.346Z,4.50
2018-03-15T04:05:07.968Z,4.50
2018-03-15T04:05:39.606Z,4.50
2018-03-15T04:06:11.230Z,4.50
2018-03-15T04:06:42.852Z,4.50
2018-03-15T04:07:14.478Z,4.50
2018-03-15T04:07:46.096Z,4.50
2018-03-15T04:08:17.739Z,4.50
2018-03-15T04:08:49.380Z,4.50
2018-03-15T04:09:21.016Z,4.50
2018-03-15T04:09:52.644Z,4.50
2018-03-15T04:10:24.299Z,4.40
2018-03-15T04:10:56.013Z,4.40
2018-03-15T04:11:27.650Z,4.50
2018-03-15T04:11:59.257Z,4.50
2018-03-15T04:12:30.890Z,4.40
2018-03-15T04:13:02.531Z,4.40
2018-03-15T04:13:34.164Z,4.40
2018-03-15T04:14:05.786Z,4.50
2018-03-15T04:14:37.447Z,4.40
2018-03-15T04:15:09.120Z,4.50
2018-03-15T04:15:40.757Z,4.40
2018-03-15T04:16:12.417Z,4.40
2018-03-15T04:21:35.421Z,4.50
2018-03-15T04:22:07.044Z,4.60
2018-03-15T04:22:38.689Z,4.60
2018-03-15T04:23:10.332Z,4.50
2018-03-15T04:23:41.968Z,4.60
2018-03-15T04:24:13.595Z,4.50
2018-03-15T04:24:45.229Z,4.60
2018-03-15T04:25:16.849Z,4.50
2018-03-15T04:25:48.464Z,4.50
2018-03-15T04:26:20.094Z,4.50
2018-03-15T04:26:51.732Z,4.50
2018-03-15T04:27:23.363Z,4.40
2018-03-15T04:27:54.973Z,4.40
2018-03-15T04:28:26.599Z,4.50
2018-03-15T04:28:58.253Z,4.40
2018-03-15T04:29:29.883Z,4.50
2018-03-15T04:30:01.521Z,4.50
2018-03-15T04:30:33.158Z,4.50
2018-03-15T04:31:08.483Z,4.50
2018-03-15T04:31:40.103Z,4.50
2018-03-15T04:32:11.721Z,4.50
2018-03-15T04:32:43.330Z,4.50
2018-03-15T04:33:14.961Z,4.50
2018-03-15T04:33:46.575Z,4.50
2018-03-15T04:34:18.203Z,4.50
2018-03-15T04:34:49.849Z,4.50
2018-03-15T04:35:21.484Z,4.40
2018-03-15T04:35:53.172Z,4.50
2018-03-15T04:36:24.791Z,4.40
2018-03-15T04:36:56.405Z,4.40
2018-03-15T04:37:28.025Z,4.40
2018-03-15T04:37:59.654Z,4.50
2018-03-15T04:38:31.290Z,4.50
2018-03-15T04:39:03.019Z,4.50
2018-03-15T04:39:34.701Z,4.50
2018-03-15T04:40:06.345Z,4.50
2018-03-15T04:40:37.987Z,4.40
2018-03-15T04:41:09.609Z,4.40
2018-03-15T04:41:41.255Z,4.40
2018-03-15T04:42:12.875Z,4.40
2018-03-15T04:42:44.519Z,4.40
2018-03-15T04:43:16.157Z,4.40
2018-03-15T04:43:47.791Z,4.50
2018-03-15T04:44:19.441Z,4.40
2018-03-15T04:44:51.057Z,4.50
2018-03-15T04:45:22.677Z,4.50
2018-03-15T04:45:54.308Z,4.50
2018-03-15T04:46:25.945Z,4.40
2018-03-15T04:46:57.569Z,4.50
2018-03-15T04:47:29.191Z,4.40
2018-03-15T04:48:00.837Z,4.00
2018-03-15T04:48:32.475Z,4.40
2018-03-15T04:49:04.105Z,4.50
2018-03-15T04:49:35.739Z,4.50
2018-03-15T04:50:07.395Z,4.50
2018-03-15T04:50:39.043Z,4.50
2018-03-15T04:51:10.671Z,4.40
2018-03-15T04:51:42.289Z,4.50
2018-03-15T04:52:13.911Z,4.40
2018-03-15T04:52:45.511Z,4.50
2018-03-15T04:53:17.169Z,4.50
2018-03-15T04:53:48.799Z,4.30
2018-03-15T04:54:20.443Z,4.40
2018-03-15T04:54:52.095Z,4.50
2018-03-15T04:55:23.734Z,4.50
2018-03-15T04:55:55.371Z,4.40
2018-03-15T04:56:27.023Z,4.40
2018-03-15T04:56:58.655Z,4.40
2018-03-15T04:57:30.287Z,4.40
2018-03-15T04:58:01.925Z,4.50
2018-03-15T04:58:33.561Z,4.40
2018-03-15T04:59:05.223Z,4.60
2018-03-15T04:59:36.859Z,4.40
2018-03-15T05:00:08.498Z,4.40
2018-03-15T05:00:40.145Z,4.50
2018-03-15T05:01:11.784Z,4.40
2018-03-15T05:01:43.413Z,4.40
2018-03-15T05:02:15.331Z,4.50
2018-03-15T05:02:46.962Z,4.50
2018-03-15T05:03:18.574Z,4.50
2018-03-15T05:03:50.209Z,4.50
2018-03-15T05:04:21.843Z,4.40
2018-03-15T05:04:53.460Z,4.40
2018-03-15T05:05:25.092Z,4.40
2018-03-15T05:05:56.756Z,4.40
2018-03-15T05:06:28.389Z,4.40
2018-03-15T05:06:59.997Z,4.40
2018-03-15T05:07:31.621Z,4.40
2018-03-15T05:08:03.305Z,4.40
2018-03-15T05:08:34.939Z,4.40
2018-03-15T05:09:06.569Z,4.50
2018-03-15T05:09:38.194Z,4.40
2018-03-15T05:10:09.837Z,4.40
2018-03-15T05:10:41.465Z,4.40
2018-03-15T05:11:13.089Z,4.40
2018-03-15T05:11:44.745Z,4.30
2018-03-15T05:12:16.363Z,4.40
2018-03-15T05:12:47.975Z,4.40
2018-03-15T05:13:19.599Z,4.40
2018-03-15T05:13:51.232Z,4.40
2018-03-15T05:14:22.860Z,4.40
2018-03-15T05:14:54.517Z,4.40
2018-03-15T05:15:26.146Z,4.40
2018-03-15T05:15:57.775Z,4.40
2018-03-15T05:16:29.411Z,4.30
2018-03-15T05:17:01.027Z,4.30
2018-03-15T05:17:32.634Z,4.30
2018-03-15T05:18:04.273Z,4.30
2018-03-15T05:18:35.901Z,4.30
2018-03-15T05:19:07.534Z,4.30
2018-03-15T05:19:39.175Z,4.30
2018-03-15T05:20:10.826Z,4.30
2018-03-15T05:20:42.445Z,4.30
2018-03-15T05:21:14.074Z,4.30
2018-03-15T05:21:45.709Z,4.30
2018-03-15T05:22:17.343Z,4.30
2018-03-15T05:22:48.987Z,4.30
2018-03-15T05:23:20.621Z,4.20
2018-03-15T05:23:52.253Z,4.30
2018-03-15T05:24:23.859Z,4.30
2018-03-15T05:24:55.525Z,4.20
2018-03-15T05:25:27.153Z,4.20
2018-03-15T05:25:58.771Z,4.20
2018-03-15T05:26:30.421Z,4.20
2018-03-15T05:27:02.040Z,4.30
2018-03-15T05:27:33.663Z,4.20
2018-03-15T05:28:05.305Z,4.20
2018-03-15T05:28:36.923Z,4.20
2018-03-15T05:29:08.551Z,4.20
2018-03-15T05:29:40.192Z,4.30
2018-03-15T05:30:11.847Z,4.30
2018-03-15T05:30:43.517Z,4.20
2018-03-15T05:31:15.216Z,4.20
2018-03-15T05:31:46.808Z,4.20
2018-03-15T05:32:18.447Z,4.20
2018-03-15T05:32:50.066Z,4.20
2018-03-15T05:33:21.675Z,4.20
2018-03-15T05:33:53.297Z,4.30
2018-03-15T05:34:24.931Z,4.20
2018-03-15T05:34:56.571Z,4.20
2018-03-15T05:35:28.221Z,4.20
2018-03-15T05:35:59.840Z,4.20
2018-03-15T05:36:31.448Z,4.30
2018-03-15T05:37:03.145Z,4.30
2018-03-15T05:37:34.790Z,4.20
2018-03-15T05:38:06.411Z,4.30
2018-03-15T05:38:38.021Z,4.20
2018-03-15T05:39:09.631Z,4.30
2018-03-15T05:39:41.264Z,4.30
2018-03-15T05:40:12.873Z,4.30
2018-03-15T05:40:44.521Z,4.30
2018-03-15T05:41:16.151Z,4.30
2018-03-15T05:41:47.782Z,4.20
2018-03-15T05:42:19.390Z,4.20
2018-03-15T05:42:51.028Z,4.30
2018-03-15T05:43:22.649Z,4.30
2018-03-15T05:43:54.274Z,4.20
2018-03-15T05:44:25.935Z,4.30
2018-03-15T05:44:57.537Z,4.30
2018-03-15T05:45:29.165Z,4.20
2018-03-15T05:46:00.823Z,4.20
2018-03-15T05:46:32.441Z,4.30
2018-03-15T05:47:04.091Z,4.30
2018-03-15T05:47:35.744Z,4.30
2018-03-15T05:48:07.366Z,4.30
2018-03-15T05:48:38.977Z,4.30
2018-03-15T05:49:10.610Z,4.30
2018-03-15T05:49:42.247Z,4.30
2018-03-15T05:50:13.886Z,4.30
2018-03-15T05:50:45.533Z,4.30
2018-03-15T05:51:17.195Z,4.30
2018-03-15T05:51:48.850Z,4.40
2018-03-15T05:52:20.503Z,4.40
2018-03-15T05:52:52.139Z,4.30
2018-03-15T05:53:23.787Z,4.30
2018-03-15T05:53:55.411Z,4.30
2018-03-15T05:54:27.029Z,4.30
2018-03-15T05:54:58.647Z,4.40
2018-03-15T05:55:30.244Z,4.30
2018-03-15T05:56:01.896Z,4.40
2018-03-15T05:56:33.553Z,4.40
2018-03-15T05:57:05.210Z,4.30
2018-03-15T05:57:36.831Z,4.40
2018-03-15T05:58:08.443Z,4.40
2018-03-15T05:58:40.062Z,4.40
2018-03-15T05:59:11.676Z,4.40
2018-03-15T05:59:43.302Z,4.30
2018-03-15T06:00:14.940Z,4.40
2018-03-15T06:00:46.561Z,4.40
2018-03-15T06:01:18.167Z,4.40
2018-03-15T06:01:49.797Z,4.40
2018-03-15T06:02:21.401Z,4.40
2018-03-15T06:02:53.034Z,4.40
2018-03-15T06:03:24.687Z,4.50
2018-03-15T06:03:56.323Z,4.50
2018-03-15T06:04:27.936Z,4.50
2018-03-15T06:04:59.561Z,4.50
2018-03-15T06:05:31.195Z,4.50
2018-03-15T06:06:02.824Z,4.50
2018-03-15T06:06:34.458Z,4.50
2018-03-15T06:07:06.083Z,4.50
2018-03-15T06:07:37.724Z,4.50
2018-03-15T06:08:09.385Z,4.50
2018-03-15T06:08:41.017Z,4.50
2018-03-15T06:09:12.634Z,4.50
2018-03-15T06:09:44.264Z,4.50
2018-03-15T06:10:15.891Z,4.60
2018-03-15T06:10:47.515Z,4.50
2018-03-15T06:11:19.157Z,4.60
2018-03-15T06:11:50.775Z,4.60
2018-03-15T06:12:22.424Z,4.60
2018-03-15T06:12:54.037Z,4.50
2018-03-15T06:13:25.653Z,4.60
2018-03-15T06:13:57.288Z,4.60
2018-03-15T06:14:28.898Z,4.60
2018-03-15T06:15:00.541Z,4.70
2018-03-15T06:15:32.191Z,4.60
2018-03-15T06:16:03.823Z,4.70
2018-03-15T06:16:35.458Z,4.60
2018-03-15T06:17:07.087Z,4.70
2018-03-15T06:17:38.730Z,4.70
2018-03-15T06:18:10.357Z,4.70
2018-03-15T06:18:41.989Z,4.70
2018-03-15T06:19:13.653Z,4.80
2018-03-15T06:19:45.265Z,4.70
2018-03-15T06:20:16.895Z,4.70
2018-03-15T06:20:48.512Z,4.80
2018-03-15T06:21:20.143Z,4.70
2018-03-15T06:21:51.774Z,4.70
2018-03-15T06:22:23.418Z,4.70
2018-03-15T06:22:55.060Z,4.80
2018-03-15T06:23:26.685Z,4.70
2018-03-15T06:23:58.308Z,4.80
2018-03-15T06:24:29.933Z,4.80
2018-03-15T06:25:01.543Z,4.80
2018-03-15T06:25:33.175Z,4.80
2018-03-15T06:26:04.822Z,4.80
2018-03-15T06:26:36.467Z,4.80
2018-03-15T06:27:08.092Z,4.80
2018-03-15T06:27:39.729Z,4.80
2018-03-15T06:28:11.379Z,4.90
2018-03-15T06:28:42.996Z,4.90
2018-03-15T06:29:14.605Z,4.90
2018-03-15T06:29:46.232Z,5.00
2018-03-15T06:30:17.853Z,5.00
2018-03-15T06:30:49.492Z,5.00
2018-03-15T06:31:21.161Z,5.00
2018-03-15T06:31:52.808Z,5.00
2018-03-15T06:32:24.411Z,5.00
2018-03-15T06:32:56.331Z,5.00
2018-03-15T06:33:27.965Z,5.00
2018-03-15T06:33:59.594Z,5.10
2018-03-15T06:34:31.209Z,5.10
2018-03-15T06:35:02.863Z,5.00
2018-03-15T06:35:34.477Z,5.10
2018-03-15T06:36:06.141Z,5.10
2018-03-15T06:36:37.757Z,5.20
2018-03-15T06:37:09.377Z,5.20
2018-03-15T06:37:40.997Z,5.20
2018-03-15T06:38:12.671Z,5.20
2018-03-15T06:38:44.274Z,5.20
2018-03-15T06:39:15.919Z,5.20
2018-03-15T06:39:47.541Z,5.30
2018-03-15T06:40:19.189Z,5.30
2018-03-15T06:40:50.817Z,5.30
2018-03-15T06:41:22.431Z,5.30
2018-03-15T06:41:54.072Z,5.30
2018-03-15T06:42:25.707Z,5.40
2018-03-15T06:42:57.337Z,5.30
2018-03-15T06:43:28.991Z,5.30
2018-03-15T06:44:00.633Z,5.40
2018-03-15T06:44:32.251Z,5.30
2018-03-15T06:45:03.905Z,5.30
2018-03-15T06:45:35.527Z,5.40
2018-03-15T06:46:07.456Z,5.40
2018-03-15T06:46:39.105Z,5.40
2018-03-15T06:47:10.728Z,5.40
2018-03-15T06:47:42.361Z,5.40
2018-03-15T06:48:14.025Z,5.50
2018-03-15T06:48:45.645Z,5.50
2018-03-15T06:49:17.288Z,5.50
2018-03-15T06:49:48.924Z,5.40
2018-03-15T06:50:20.571Z,5.50
2018-03-15T06:50:52.213Z,5.40
2018-03-15T06:51:23.831Z,5.50
2018-03-15T06:51:55.461Z,5.50
2018-03-15T06:52:27.123Z,5.50
2018-03-15T06:52:58.750Z,5.50
2018-03-15T06:53:30.389Z,5.50
2018-03-15T06:54:02.028Z,5.50
2018-03-15T06:54:33.648Z,5.60
2018-03-15T06:55:05.292Z,5.50
2018-03-15T06:55:36.913Z,5.50
2018-03-15T06:56:08.533Z,5.60
2018-03-15T06:56:40.166Z,5.60
2018-03-15T06:57:11.795Z,5.60
2018-03-15T06:57:43.415Z,5.50
2018-03-15T06:58:15.058Z,5.60
2018-03-15T06:58:46.695Z,5.60
2018-03-15T06:59:18.322Z,5.60
2018-03-15T06:59:49.982Z,5.60
2018-03-15T07:00:21.617Z,5.50
2018-03-15T07:00:53.259Z,5.50
2018-03-15T07:01:24.857Z,5.50
2018-03-15T07:01:56.512Z,5.50
2018-03-15T07:02:28.153Z,5.60
2018-03-15T07:02:59.792Z,5.60
2018-03-15T07:03:31.417Z,5.60
2018-03-15T07:04:03.047Z,5.60
2018-03-15T07:04:34.713Z,5.60
2018-03-15T07:05:06.394Z,5.60
2018-03-15T07:05:38.033Z,5.70
2018-03-15T07:06:09.657Z,5.60